Elton, WI

4:44 PM CST on November 24, 2014 (GMT -0600)
Langlade County | Change Station
CLOSE
Current Station
Airport
Location: Antigo,
Elevation: 1522 ft
Nearby Weather Stations
Active Advisory: Winter Weather Advisory

Elev 1522 ft 45.16 °N, 89.11 °W | Updated 9 minutes ago

Snow
Snow
25 °F
Feels Like 11 °F
N
21
Wind Variable Wind from NNW
Gusts 25 mph

Today
High -- | Low -- °F
--% Chance of Precip.
Yesterday
High -- | Low -- °F
Precip. -- in
7:05 AM 4:18 PM
Waxing Crescent, 7% visible
Pressure 29.32 in
Visibility 1.0 miles
Clouds Overcast 900 ft
Windchill 11 °F
Dew Point 24 °F
Humidity 94%
Rainfall 0.16 in
Snow Depth Not available.
UV 0 out of 12
Pollen .10 out of 12
Air Quality Not available.
Flu Activity Not available.
METAR KAIG 242235Z AUTO 34018G22KT 1SM SN OVC009 M04/M04 A2932 RMK AO2 T10371045

More Conditions Fewer Conditions

Pressure 29.32 in
Visibility 1.0 miles
Clouds Overcast 900 ft
Windchill 11 °F
Dew Point 24 °F
Humidity 94%
Rainfall 0.16 in
Snow Depth Not available.
UV 0 out of 12
Pollen .10 out of 12
Air Quality Not available.
Flu Activity Not available.
METAR KAIG 242235Z AUTO 34018G22KT 1SM SN OVC009 M04/M04 A2932 RMK AO2 T10371045

More Conditions Fewer Conditions

10-Day Weather Forecast

Almanac

Astronomy

Nov. 24, 2014 Rise Set
Actual Time
Civil Twilight
Nautical Twilight
Astronomical Twilight
Moon
Length of Visible Light
Length of Day
Tomorrow will be .
, % of the Moon is Illuminated

Today's Extremes

State Highs State Lows

Community

WunderPhotos

Upload Photos

1,773,427 photos uploaded!

WunderBlogs® & News

Nearby

Air Quality

  Air Quality AQ Index Pollutant
Not available.

Snow Depth

Station Depth Elevation

Earthquake Activity

City Distance Mag. Time & Date
Minimum magnitude displayed is 2.5.

Coastal Water Temperatures

Place Temperature

Nearby Weather Stations